createdAt,value
2019-03-15T00:01:46.075Z,30.43
2019-03-15T00:04:16.350Z,31.20
2019-03-15T00:06:46.640Z,30.83
2019-03-15T00:09:17.003Z,33.27
2019-03-15T00:11:47.305Z,32.50
2019-03-15T00:14:17.658Z,28.80
2019-03-15T00:16:47.983Z,33.17
2019-03-15T00:19:18.574Z,30.07
2019-03-15T00:21:49.991Z,29.63
2019-03-15T00:24:20.257Z,32.30
2019-03-15T00:26:50.590Z,27.17
2019-03-15T00:29:20.855Z,27.47
2019-03-15T00:31:51.518Z,29.27
2019-03-15T00:34:22.117Z,26.53
2019-03-15T00:36:52.861Z,27.97
2019-03-15T00:39:23.138Z,29.23
2019-03-15T00:41:53.454Z,30.93
2019-03-15T00:44:24.146Z,27.10
2019-03-15T00:46:54.396Z,31.47
2019-03-15T00:49:25.427Z,29.00
2019-03-15T00:51:55.831Z,29.37
2019-03-15T00:54:26.115Z,29.27
2019-03-15T00:56:56.415Z,28.93
2019-03-15T00:59:26.740Z,33.00
2019-03-15T01:01:57.064Z,32.27
2019-03-15T01:04:28.073Z,33.07
2019-03-15T01:06:58.365Z,34.50
2019-03-15T01:09:28.711Z,34.67
2019-03-15T01:11:58.966Z,33.33
2019-03-15T01:14:29.249Z,31.40
2019-03-15T01:17:00.580Z,34.63
2019-03-15T01:19:31.034Z,31.40
2019-03-15T01:22:01.434Z,33.97
2019-03-15T01:24:31.910Z,36.00
2019-03-15T01:27:02.126Z,37.97
2019-03-15T01:29:32.436Z,34.30
2019-03-15T01:32:03.866Z,34.00
2019-03-15T01:34:34.203Z,34.90
2019-03-15T01:37:04.463Z,30.67
2019-03-15T01:39:35.422Z,37.57
2019-03-15T01:42:06.268Z,33.03
2019-03-15T01:44:36.515Z,37.27
2019-03-15T01:47:06.782Z,33.67
2019-03-15T01:49:38.018Z,32.83
2019-03-15T01:52:09.044Z,32.13
2019-03-15T01:54:39.313Z,37.53
2019-03-15T01:57:09.797Z,36.97
2019-03-15T01:59:40.048Z,35.00
2019-03-15T02:02:10.538Z,32.50
2019-03-15T02:04:40.875Z,31.80
2019-03-15T02:07:11.195Z,34.50
2019-03-15T02:09:41.443Z,32.33
2019-03-15T02:12:11.873Z,31.07
2019-03-15T02:14:42.113Z,29.13
2019-03-15T02:17:12.499Z,35.93
2019-03-15T02:19:42.786Z,30.43
2019-03-15T02:22:13.593Z,31.13
2019-03-15T02:24:43.786Z,28.20
2019-03-15T02:27:14.291Z,35.30
2019-03-15T02:29:44.579Z,32.20
2019-03-15T02:32:15.245Z,28.33
2019-03-15T02:34:45.724Z,27.77
2019-03-15T02:37:16.406Z,27.47
2019-03-15T02:39:46.649Z,28.57
2019-03-15T02:42:17.089Z,29.43
2019-03-15T02:44:47.346Z,31.17
2019-03-15T02:47:19.395Z,29.00
2019-03-15T02:49:50.153Z,31.43
2019-03-15T02:52:25.148Z,28.70
2019-03-15T02:54:55.599Z,29.30
2019-03-15T02:57:26.103Z,29.97
2019-03-15T02:59:56.602Z,26.13
2019-03-15T03:02:27.847Z,27.83
2019-03-15T03:04:58.286Z,29.60
2019-03-15T03:07:28.593Z,28.60
2019-03-15T03:09:59.285Z,22.90
2019-03-15T03:12:29.877Z,20.90
2019-03-15T03:15:00.307Z,22.27
2019-03-15T03:17:30.916Z,25.37
2019-03-15T03:20:01.430Z,21.30
2019-03-15T03:22:31.704Z,24.13
2019-03-15T03:25:02.195Z,21.40
2019-03-15T03:27:33.977Z,21.20
2019-03-15T03:30:05.283Z,22.23
2019-03-15T03:32:35.560Z,20.23
2019-03-15T03:35:06.231Z,21.57
2019-03-15T03:37:36.790Z,18.43
2019-03-15T03:40:07.171Z,18.73
2019-03-15T03:42:37.857Z,20.10
2019-03-15T03:45:08.237Z,20.27
2019-03-15T03:47:38.409Z,16.33
2019-03-15T03:50:09.067Z,20.00
2019-03-15T03:52:41.765Z,19.40
2019-03-15T03:55:11.269Z,18.73
2019-03-15T03:57:41.517Z,18.70
2019-03-15T04:00:12.183Z,17.90
2019-03-15T04:02:42.463Z,19.63
2019-03-15T04:05:13.132Z,17.67
2019-03-15T04:07:43.299Z,17.60
2019-03-15T04:10:14.298Z,20.47
2019-03-15T04:12:44.548Z,20.20
2019-03-15T04:15:15.357Z,19.43
2019-03-15T04:17:45.582Z,19.90
2019-03-15T04:20:16.099Z,19.60
2019-03-15T04:22:46.375Z,23.07
2019-03-15T04:25:17.019Z,19.23
2019-03-15T04:27:47.292Z,18.60
2019-03-15T04:30:17.854Z,17.50
2019-03-15T04:32:48.132Z,18.90
2019-03-15T04:35:18.708Z,17.60
2019-03-15T04:37:49.033Z,16.63
2019-03-15T04:40:20.605Z,16.03
2019-03-15T04:42:50.950Z,16.83
2019-03-15T04:45:21.364Z,18.50
2019-03-15T04:47:51.637Z,20.97
2019-03-15T04:50:21.878Z,17.83
2019-03-15T04:52:52.126Z,17.07
2019-03-15T04:55:22.397Z,18.53
2019-03-15T04:57:52.646Z,17.67
2019-03-15T05:00:23.081Z,18.80
2019-03-15T05:02:53.330Z,18.37
2019-03-15T05:05:23.609Z,18.17
2019-03-15T05:07:53.934Z,19.10
2019-03-15T05:10:24.316Z,18.83
2019-03-15T05:12:54.779Z,17.97
2019-03-15T05:15:25.284Z,18.10
2019-03-15T05:17:55.862Z,19.60
2019-03-15T05:20:26.171Z,18.90
2019-03-15T05:22:56.436Z,17.83
2019-03-15T05:25:29.728Z,19.90
2019-03-15T05:27:58.818Z,19.27
2019-03-15T05:30:29.185Z,16.47
2019-03-15T05:32:59.532Z,15.40
2019-03-15T05:35:29.807Z,18.77
2019-03-15T05:38:00.261Z,18.80
2019-03-15T05:40:31.506Z,18.60
2019-03-15T05:43:02.338Z,17.10
2019-03-15T05:45:32.653Z,17.33
2019-03-15T05:48:03.437Z,15.43
2019-03-15T05:50:33.936Z,15.10
2019-03-15T05:53:05.438Z,22.00
2019-03-15T05:55:35.918Z,18.30
2019-03-15T05:58:06.798Z,16.67
2019-03-15T06:00:37.302Z,15.07
2019-03-15T06:03:07.559Z,14.60
2019-03-15T06:05:37.870Z,17.57
2019-03-15T06:08:08.537Z,16.77
2019-03-15T06:10:38.805Z,13.73
2019-03-15T06:13:09.057Z,15.43
2019-03-15T06:15:39.529Z,16.27
2019-03-15T06:18:09.776Z,14.87
2019-03-15T06:20:40.112Z,14.03
2019-03-15T06:23:10.709Z,15.60
2019-03-15T06:25:41.057Z,17.43
2019-03-15T06:28:11.333Z,15.83
2019-03-15T06:30:42.076Z,15.50
2019-03-15T06:33:12.406Z,15.67
2019-03-15T06:35:42.840Z,12.83
2019-03-15T06:38:13.303Z,15.40
2019-03-15T06:40:43.911Z,15.10
2019-03-15T06:43:14.172Z,17.03
2019-03-15T06:45:44.969Z,15.27
2019-03-15T06:48:15.382Z,18.33
2019-03-15T06:50:45.679Z,16.97
2019-03-15T06:53:16.029Z,13.07
2019-03-15T06:55:46.335Z,16.27
2019-03-15T06:58:17.295Z,16.07
2019-03-15T07:00:47.595Z,16.17
2019-03-15T07:03:17.956Z,17.87
2019-03-15T07:05:48.512Z,17.17
2019-03-15T07:08:19.099Z,15.17
2019-03-15T07:10:49.378Z,15.47
2019-03-15T07:13:19.703Z,16.57
2019-03-15T07:15:50.467Z,18.57
2019-03-15T07:18:20.722Z,15.77
2019-03-15T07:20:50.994Z,17.40
2019-03-15T07:23:21.662Z,16.90
2019-03-15T07:25:52.081Z,15.57
2019-03-15T07:28:22.602Z,20.30
2019-03-15T07:30:53.232Z,16.30
2019-03-15T07:33:23.548Z,18.83
2019-03-15T07:35:53.872Z,20.97
2019-03-15T07:38:24.552Z,13.97
2019-03-15T07:40:54.961Z,13.77
2019-03-15T07:43:25.431Z,16.80
2019-03-15T07:45:56.736Z,15.73
2019-03-15T07:48:27.150Z,13.43
2019-03-15T07:50:58.881Z,17.30
2019-03-15T07:53:30.216Z,15.10
2019-03-15T07:56:00.493Z,12.97
2019-03-15T07:58:31.224Z,12.37
2019-03-15T08:01:01.576Z,12.37
2019-03-15T08:03:32.295Z,12.67
2019-03-15T08:06:02.708Z,13.10
2019-03-15T08:08:33.545Z,12.77
2019-03-15T08:11:03.831Z,11.17
2019-03-15T08:13:34.152Z,13.30
2019-03-15T08:16:04.454Z,16.83
2019-03-15T08:18:35.362Z,12.00
2019-03-15T08:21:05.630Z,12.47
2019-03-15T08:23:36.507Z,13.73
2019-03-15T08:26:07.113Z,12.63
2019-03-15T08:28:37.871Z,14.37
2019-03-15T08:31:08.178Z,15.60
2019-03-15T08:33:38.406Z,12.60
2019-03-15T08:36:10.074Z,13.43
2019-03-15T08:38:47.353Z,13.90
2019-03-15T08:41:12.238Z,12.47
2019-03-15T08:43:45.985Z,13.17
2019-03-15T08:46:14.963Z,14.13
2019-03-15T08:48:45.409Z,11.63
2019-03-15T08:51:15.981Z,13.90
2019-03-15T08:53:46.216Z,12.77
2019-03-15T08:56:16.770Z,12.03
2019-03-15T08:58:47.008Z,16.53
2019-03-15T09:01:17.516Z,15.47
2019-03-15T09:03:47.806Z,14.90
2019-03-15T09:06:18.572Z,14.90
2019-03-15T09:08:48.818Z,16.50
2019-03-15T09:11:19.621Z,18.07
2019-03-15T09:13:49.844Z,16.37
2019-03-15T09:16:20.094Z,17.57
2019-03-15T09:18:50.398Z,14.90
2019-03-15T09:21:20.829Z,15.43
2019-03-15T09:23:51.092Z,15.70
2019-03-15T09:26:21.602Z,15.47
2019-03-15T09:28:51.856Z,15.73
2019-03-15T09:31:22.163Z,20.57
2019-03-15T09:33:52.339Z,21.83
2019-03-15T09:36:22.641Z,16.97
2019-03-15T09:38:52.995Z,17.70
2019-03-15T09:41:31.962Z,15.77
2019-03-15T09:43:55.182Z,20.03
2019-03-15T09:46:25.537Z,17.27
2019-03-15T09:48:55.910Z,17.97
2019-03-15T09:51:26.261Z,14.63
2019-03-15T09:53:56.787Z,14.90
2019-03-15T09:56:27.961Z,13.10
2019-03-15T09:58:58.758Z,12.10
2019-03-15T10:01:35.137Z,14.33
2019-03-15T10:04:00.945Z,12.73
2019-03-15T10:06:31.209Z,12.77
2019-03-15T10:09:01.506Z,15.17
2019-03-15T10:11:33.496Z,20.40
2019-03-15T10:14:03.880Z,15.63
2019-03-15T10:16:34.181Z,15.43
2019-03-15T10:19:04.810Z,16.50
2019-03-15T10:21:35.145Z,21.50
2019-03-15T10:24:05.377Z,22.03
2019-03-15T10:26:35.581Z,22.50
2019-03-15T10:29:15.145Z,20.03
2019-03-15T10:31:37.915Z,21.33
2019-03-15T10:34:08.343Z,18.07
2019-03-15T10:36:38.667Z,23.03
2019-03-15T10:39:10.935Z,19.50
2019-03-15T10:41:41.428Z,21.83
2019-03-15T10:44:11.717Z,21.03
2019-03-15T10:46:41.995Z,22.57
2019-03-15T10:49:12.357Z,22.00
2019-03-15T10:51:42.847Z,20.20
2019-03-15T10:54:13.171Z,21.20
2019-03-15T10:56:48.783Z,19.47
2019-03-15T10:59:19.755Z,20.60
2019-03-15T11:01:50.024Z,19.73
2019-03-15T11:04:20.805Z,17.90
2019-03-15T11:06:51.418Z,17.33
2019-03-15T11:09:21.847Z,19.57
2019-03-15T11:11:52.127Z,16.23
2019-03-15T11:14:22.616Z,15.07
2019-03-15T11:16:53.122Z,10.90
2019-03-15T11:19:26.438Z,14.73
2019-03-15T11:22:01.144Z,13.60
2019-03-15T11:27:15.458Z,13.10
2019-03-15T11:29:45.723Z,11.57
2019-03-15T11:32:15.960Z,13.93
2019-03-15T11:34:46.220Z,10.67
2019-03-15T11:37:16.736Z,12.03
2019-03-15T11:39:46.935Z,11.13
2019-03-15T11:42:17.210Z,10.70
2019-03-15T11:44:48.097Z,10.87
2019-03-15T11:47:18.594Z,10.03
2019-03-15T11:49:48.815Z,9.50
2019-03-15T11:52:19.305Z,11.97
2019-03-15T11:54:49.932Z,10.83
2019-03-15T11:57:20.716Z,10.63
2019-03-15T11:59:51.071Z,10.23
2019-03-15T12:02:21.339Z,5.03
2019-03-15T12:04:51.614Z,6.43
2019-03-15T12:07:21.847Z,4.40
2019-03-15T12:09:52.385Z,3.97
2019-03-15T12:12:22.585Z,3.50
2019-03-15T12:14:52.923Z,5.67
2019-03-15T12:17:23.163Z,6.47
2019-03-15T12:19:53.587Z,8.17
2019-03-15T12:22:24.088Z,8.80
2019-03-15T12:24:54.431Z,7.77
2019-03-15T12:27:24.669Z,6.83
2019-03-15T12:29:54.988Z,6.23
2019-03-15T12:32:25.487Z,7.27
2019-03-15T12:34:55.912Z,8.80
2019-03-15T12:37:26.281Z,7.27
2019-03-15T12:40:00.406Z,5.97
2019-03-15T12:42:30.624Z,10.50
2019-03-15T12:45:00.973Z,9.97
2019-03-15T12:47:32.431Z,7.13
2019-03-15T12:50:02.731Z,7.47
2019-03-15T12:52:41.941Z,7.97
2019-03-15T12:55:05.574Z,6.20
2019-03-15T12:57:35.886Z,6.60
2019-03-15T13:00:07.822Z,10.23
2019-03-15T13:02:39.002Z,7.60
2019-03-15T13:05:09.556Z,9.97
2019-03-15T13:07:39.936Z,6.70
2019-03-15T13:10:11.832Z,6.37
2019-03-15T13:12:42.100Z,3.17
2019-03-15T13:15:13.289Z,3.63
2019-03-15T13:17:43.520Z,3.63
2019-03-15T13:20:13.848Z,3.73
2019-03-15T13:22:44.152Z,2.80
2019-03-15T13:25:15.018Z,4.73
2019-03-15T13:27:45.274Z,5.83
2019-03-15T13:30:15.605Z,5.03
2019-03-15T13:32:45.968Z,4.23
2019-03-15T13:35:16.184Z,4.50
2019-03-15T13:37:46.499Z,3.83
2019-03-15T13:40:16.745Z,4.93
2019-03-15T13:42:47.007Z,4.53
2019-03-15T13:45:17.379Z,5.13
2019-03-15T13:47:48.860Z,6.20
2019-03-15T13:50:19.129Z,7.47
2019-03-15T13:52:49.410Z,7.97
2019-03-15T13:55:19.666Z,6.57
2019-03-15T13:57:49.952Z,5.87
2019-03-15T14:00:20.577Z,7.70
2019-03-15T14:02:50.932Z,4.70
2019-03-15T14:05:21.206Z,3.33
2019-03-15T14:07:51.598Z,4.20
2019-03-15T14:10:21.851Z,4.23
2019-03-15T14:12:52.141Z,3.17
2019-03-15T14:15:22.428Z,3.47
2019-03-15T14:17:52.719Z,3.60
2019-03-15T14:20:22.959Z,3.70
2019-03-15T14:22:53.331Z,4.83
2019-03-15T14:25:23.608Z,4.23
2019-03-15T14:27:53.934Z,5.93
2019-03-15T14:30:24.221Z,5.80
2019-03-15T14:32:54.528Z,5.67
2019-03-15T14:35:24.816Z,6.00
2019-03-15T14:37:55.309Z,5.40
2019-03-15T14:40:25.812Z,5.47
2019-03-15T14:42:55.997Z,5.87
2019-03-15T14:45:26.285Z,5.93
2019-03-15T14:47:56.609Z,6.67
2019-03-15T14:50:26.992Z,7.10
2019-03-15T14:52:57.359Z,5.73
2019-03-15T14:55:27.547Z,7.57
2019-03-15T14:58:00.219Z,7.50
2019-03-15T15:00:29.999Z,7.13
2019-03-15T15:03:00.357Z,8.57
2019-03-15T15:05:30.651Z,7.33
2019-03-15T15:08:02.102Z,10.43
2019-03-15T15:10:32.489Z,10.67
2019-03-15T15:13:02.927Z,11.07
2019-03-15T15:15:34.297Z,9.97
2019-03-15T15:18:04.765Z,10.07
2019-03-15T15:20:35.114Z,9.53
2019-03-15T15:23:05.449Z,10.03
2019-03-15T15:25:35.651Z,10.97
2019-03-15T15:28:05.976Z,9.27
2019-03-15T15:30:36.353Z,9.90
2019-03-15T15:33:06.748Z,9.53
2019-03-15T15:35:36.989Z,12.60
2019-03-15T15:38:07.191Z,10.57
2019-03-15T15:40:37.487Z,10.43
2019-03-15T15:43:07.910Z,9.77
2019-03-15T15:45:38.596Z,14.40
2019-03-15T15:48:08.921Z,11.00
2019-03-15T15:50:39.166Z,17.40
2019-03-15T15:53:12.656Z,12.80
2019-03-15T15:55:42.882Z,14.33
2019-03-15T15:58:18.172Z,11.90
2019-03-15T16:00:45.241Z,17.97
2019-03-15T16:03:15.615Z,13.13
2019-03-15T16:05:46.068Z,13.37
2019-03-15T16:08:16.531Z,15.97
2019-03-15T16:10:46.837Z,13.67
2019-03-15T16:13:17.808Z,10.03
2019-03-15T16:15:48.431Z,13.13
2019-03-15T16:18:18.754Z,12.60
2019-03-15T16:20:49.026Z,11.23
2019-03-15T16:23:19.474Z,11.53
2019-03-15T16:25:49.766Z,12.07
2019-03-15T16:28:30.865Z,13.90
2019-03-15T16:30:52.100Z,10.27
2019-03-15T16:33:22.864Z,12.67
2019-03-15T16:35:53.270Z,14.00
2019-03-15T16:38:23.619Z,12.33
2019-03-15T16:40:54.085Z,11.50
2019-03-15T16:43:24.457Z,13.37
2019-03-15T16:45:54.844Z,12.20
2019-03-15T16:48:26.140Z,16.43
2019-03-15T16:50:56.798Z,10.57
2019-03-15T16:53:27.156Z,16.30
2019-03-15T16:55:58.130Z,14.70
2019-03-15T16:58:28.458Z,13.87
2019-03-15T17:00:58.886Z,11.67
2019-03-15T17:03:29.430Z,12.67
2019-03-15T17:05:59.830Z,16.53
2019-03-15T17:08:30.089Z,17.37
2019-03-15T17:11:00.506Z,13.43
2019-03-15T17:13:30.743Z,18.13
2019-03-15T17:16:01.081Z,16.50
2019-03-15T17:18:31.390Z,17.43
2019-03-15T17:21:01.746Z,17.63
2019-03-15T17:23:32.031Z,17.20
2019-03-15T17:26:02.273Z,14.90
2019-03-15T17:28:32.613Z,16.23
2019-03-15T17:31:09.728Z,15.60
2019-03-15T17:33:34.843Z,12.83
2019-03-15T17:36:05.578Z,14.73
2019-03-15T17:38:36.300Z,12.60
2019-03-15T17:41:06.583Z,13.17
2019-03-15T17:43:36.997Z,12.97
2019-03-15T17:46:07.335Z,10.77
2019-03-15T17:48:37.627Z,12.27
2019-03-15T17:51:08.939Z,11.47
2019-03-15T17:53:39.515Z,13.37
2019-03-15T17:56:09.823Z,13.60
2019-03-15T17:58:40.087Z,15.80
2019-03-15T18:01:10.425Z,14.60
2019-03-15T18:03:40.774Z,16.23
2019-03-15T18:06:10.983Z,16.00
2019-03-15T18:08:41.724Z,16.30
2019-03-15T18:11:11.998Z,18.27
2019-03-15T18:13:42.523Z,16.63
2019-03-15T18:16:12.833Z,20.03
2019-03-15T18:18:43.217Z,20.50
2019-03-15T18:21:13.490Z,19.73
2019-03-15T18:23:44.937Z,18.23
2019-03-15T18:26:16.960Z,17.67
2019-03-15T18:28:47.231Z,20.33
2019-03-15T18:31:17.523Z,22.80
2019-03-15T18:33:48.597Z,19.27
2019-03-15T18:36:19.376Z,22.47
2019-03-15T18:38:49.926Z,25.33
2019-03-15T18:41:20.269Z,23.47
2019-03-15T18:43:50.679Z,26.33
2019-03-15T18:46:21.163Z,24.97
2019-03-15T18:48:51.429Z,25.27
2019-03-15T18:51:22.408Z,25.33
2019-03-15T18:53:52.741Z,28.87
2019-03-15T18:56:23.030Z,21.67
2019-03-15T18:58:53.519Z,22.43
2019-03-15T19:01:24.016Z,24.00
2019-03-15T19:03:54.351Z,24.57
2019-03-15T19:06:24.810Z,28.67
2019-03-15T19:08:55.766Z,22.93
2019-03-15T19:11:26.149Z,24.27
2019-03-15T19:13:56.517Z,26.00
2019-03-15T19:16:26.774Z,28.70
2019-03-15T19:18:57.127Z,29.53
2019-03-15T19:21:27.565Z,24.60
2019-03-15T19:23:57.854Z,25.53
2019-03-15T19:26:29.045Z,30.03
2019-03-15T19:29:00.174Z,28.33
2019-03-15T19:31:30.668Z,27.73
2019-03-15T19:34:00.997Z,28.87
2019-03-15T19:36:31.310Z,30.67
2019-03-15T19:39:02.535Z,25.33
2019-03-15T19:41:34.814Z,21.97
2019-03-15T19:44:05.215Z,27.60
2019-03-15T19:46:35.467Z,26.13
2019-03-15T19:49:06.012Z,30.17
2019-03-15T19:51:36.526Z,26.07
2019-03-15T19:54:06.930Z,31.20
2019-03-15T19:56:37.548Z,28.40
2019-03-15T19:59:07.841Z,28.10
2019-03-15T20:01:38.202Z,33.87
2019-03-15T20:04:08.529Z,29.33
2019-03-15T20:06:39.092Z,30.03
2019-03-15T20:09:09.897Z,32.63
2019-03-15T20:11:40.296Z,27.30
2019-03-15T20:14:10.855Z,33.53
2019-03-15T20:16:41.206Z,31.87
2019-03-15T20:19:11.782Z,32.70
2019-03-15T20:21:42.411Z,30.37
2019-03-15T20:24:12.842Z,32.87
2019-03-15T20:26:43.469Z,31.93
2019-03-15T20:29:15.224Z,29.30
2019-03-15T20:31:45.587Z,31.10
2019-03-15T20:34:15.946Z,27.67
2019-03-15T20:36:46.221Z,29.23
2019-03-15T20:39:17.442Z,29.77
2019-03-15T20:41:47.805Z,30.00
2019-03-15T20:44:27.758Z,26.77
2019-03-15T20:46:50.635Z,26.50
2019-03-15T20:49:21.348Z,27.20
2019-03-15T20:51:51.968Z,29.53
2019-03-15T20:54:22.312Z,27.17
2019-03-15T20:56:52.707Z,29.67
2019-03-15T20:59:23.548Z,22.87
2019-03-15T21:01:54.019Z,29.50
2019-03-15T21:04:24.748Z,27.03
2019-03-15T21:06:55.318Z,31.23
2019-03-15T21:09:25.791Z,29.93
2019-03-15T21:11:56.192Z,26.57
2019-03-15T21:14:26.826Z,28.93
2019-03-15T21:16:57.493Z,25.00
2019-03-15T21:19:27.796Z,28.60
2019-03-15T21:21:58.433Z,24.77
2019-03-15T21:24:28.778Z,26.03
2019-03-15T21:26:59.131Z,25.03
2019-03-15T21:29:29.439Z,27.27
2019-03-15T21:31:59.851Z,27.07
2019-03-15T21:34:30.651Z,32.70
2019-03-15T21:37:01.073Z,23.73
2019-03-15T21:39:31.519Z,26.70
2019-03-15T21:42:01.923Z,27.80
2019-03-15T21:44:32.340Z,23.53
2019-03-15T21:47:02.663Z,27.37
2019-03-15T21:49:35.286Z,21.43
2019-03-15T21:52:04.907Z,20.43
2019-03-15T21:54:35.215Z,28.90
2019-03-15T21:57:05.542Z,24.20
2019-03-15T21:59:38.904Z,25.40
2019-03-15T22:02:08.322Z,19.93
2019-03-15T22:04:38.603Z,26.43
2019-03-15T22:07:09.031Z,26.73
2019-03-15T22:09:39.471Z,21.17
2019-03-15T22:12:09.741Z,25.30
2019-03-15T22:14:40.354Z,24.77
2019-03-15T22:17:10.593Z,24.20
2019-03-15T22:19:41.913Z,25.03
2019-03-15T22:22:12.255Z,26.07
2019-03-15T22:24:42.552Z,22.00
2019-03-15T22:27:12.846Z,29.37
2019-03-15T22:29:53.334Z,22.97
2019-03-15T22:32:17.867Z,23.17
2019-03-15T22:34:48.188Z,26.87
2019-03-15T22:37:18.503Z,23.47
2019-03-15T22:39:48.899Z,20.73
2019-03-15T22:42:19.137Z,20.50
2019-03-15T22:44:49.427Z,25.20
2019-03-15T22:47:19.705Z,26.20
2019-03-15T22:49:50.035Z,23.13
2019-03-15T22:52:20.238Z,26.87
2019-03-15T22:54:50.545Z,26.53
2019-03-15T22:57:20.867Z,27.13
2019-03-15T22:59:51.199Z,21.20
2019-03-15T23:02:21.596Z,20.43
2019-03-15T23:04:51.882Z,26.27
2019-03-15T23:07:22.244Z,28.50
2019-03-15T23:09:54.723Z,24.70
2019-03-15T23:12:24.942Z,23.87
2019-03-15T23:14:56.034Z,24.40
2019-03-15T23:17:26.654Z,23.43
2019-03-15T23:19:58.304Z,20.73
2019-03-15T23:22:28.585Z,25.47
2019-03-15T23:24:58.851Z,16.33
2019-03-15T23:27:29.584Z,14.13
2019-03-15T23:29:59.840Z,10.43
2019-03-15T23:32:30.414Z,10.27
2019-03-15T23:35:00.658Z,10.97
2019-03-15T23:37:31.149Z,8.17
2019-03-15T23:40:03.288Z,10.10
2019-03-15T23:42:34.059Z,7.10
2019-03-15T23:45:04.872Z,7.50
2019-03-15T23:47:35.318Z,8.70
2019-03-15T23:50:06.264Z,9.10
2019-03-15T23:52:36.474Z,7.87
2019-03-15T23:55:06.726Z,10.03
2019-03-15T23:57:37.206Z,5.17
